Time,TemperatureF,DewpointF,PressureIn,WindDirection,WindDirectionDegrees,WindSpeedMPH,WindSpeedGustMPH,Humidity,HourlyPrecipIn,Conditions,Clouds,dailyrainin,SolarRadiationWatts/m^2,SoftwareType,DateUTC
2013-05-06 00:02:00,37.0,35.0,-100.00,NW,326,1.0,5.0,94,0.02,,,-99.99,1.000000,,2013-05-06 06:02:00,
2013-05-06 00:12:00,37.0,35.0,-100.00,NW,326,1.0,5.0,94,0.02,,,-99.99,1.000000,,2013-05-06 06:12:00,
2013-05-06 00:21:00,37.0,35.0,-100.00,NW,326,1.0,5.0,94,0.02,,,-99.99,1.000000,,2013-05-06 06:21:00,
2013-05-06 00:42:00,35.0,34.0,-100.00,WNW,291,0.0,3.0,95,0.00,,,-99.99,1.000000,,2013-05-06 06:42:00,
2013-05-06 00:52:00,35.0,34.0,-100.00,WNW,291,0.0,3.0,95,0.00,,,-99.99,1.000000,,2013-05-06 06:52:00,
2013-05-06 01:01:00,35.0,34.0,-100.00,WNW,291,0.0,3.0,95,0.00,,,-99.99,1.000000,,2013-05-06 07:01:00,
2013-05-06 01:11:00,35.0,34.0,-100.00,WNW,291,0.0,3.0,95,0.00,,,-99.99,1.000000,,2013-05-06 07:11:00,
2013-05-06 01:22:00,35.0,34.0,-100.00,WNW,291,0.0,3.0,95,0.00,,,-99.99,1.000000,,2013-05-06 07:22:00,
2013-05-06 01:42:00,36.0,34.0,-100.00,West,280,2.0,8.0,91,0.00,,,0.04,1.000000,,2013-05-06 07:42:00,
2013-05-06 01:52:00,36.0,34.0,-100.00,West,280,2.0,8.0,91,0.00,,,0.04,1.000000,,2013-05-06 07:52:00,
2013-05-06 02:02:00,36.0,34.0,-100.00,West,280,2.0,8.0,91,0.00,,,0.04,1.000000,,2013-05-06 08:02:00,
2013-05-06 02:12:00,36.0,34.0,-100.00,West,280,2.0,8.0,91,0.00,,,0.04,1.000000,,2013-05-06 08:12:00,
2013-05-06 02:22:00,36.0,34.0,-100.00,West,280,2.0,8.0,91,0.00,,,0.04,1.000000,,2013-05-06 08:22:00,
2013-05-06 02:42:00,35.0,33.0,-100.00,WNW,291,3.0,6.0,91,0.00,,,0.04,1.000000,,2013-05-06 08:42:00,
2013-05-06 02:52:00,35.0,33.0,-100.00,WNW,291,3.0,6.0,91,0.00,,,0.04,1.000000,,2013-05-06 08:52:00,
2013-05-06 03:01:00,35.0,33.0,-100.00,WNW,291,3.0,6.0,91,0.00,,,0.04,1.000000,,2013-05-06 09:01:00,
2013-05-06 03:11:00,35.0,33.0,-100.00,WNW,291,3.0,6.0,91,0.00,,,0.04,1.000000,,2013-05-06 09:11:00,
2013-05-06 03:22:00,35.0,33.0,-100.00,WNW,291,3.0,6.0,91,0.00,,,0.04,1.000000,,2013-05-06 09:22:00,
2013-05-06 03:43:00,33.0,31.0,-100.00,NNW,333,2.0,7.0,94,0.00,,,0.04,1.000000,,2013-05-06 09:43:00,
2013-05-06 03:53:00,33.0,31.0,-100.00,NNW,333,2.0,7.0,94,0.00,,,0.04,1.000000,,2013-05-06 09:53:00,
2013-05-06 04:02:00,33.0,31.0,-100.00,NNW,333,2.0,7.0,94,0.00,,,0.04,1.000000,,2013-05-06 10:02:00,
2013-05-06 04:12:00,33.0,31.0,-100.00,NNW,333,2.0,7.0,94,0.00,,,0.04,1.000000,,2013-05-06 10:12:00,
2013-05-06 04:22:00,33.0,31.0,-100.00,NNW,333,2.0,7.0,94,0.00,,,0.04,1.000000,,2013-05-06 10:22:00,
2013-05-06 04:42:00,31.0,30.0,-100.00,WNW,293,0.0,4.0,95,0.00,,,0.04,1.000000,,2013-05-06 10:42:00,
2013-05-06 04:52:00,31.0,30.0,-100.00,WNW,293,0.0,4.0,95,0.00,,,0.04,1.000000,,2013-05-06 10:52:00,
2013-05-06 05:02:00,31.0,30.0,-100.00,WNW,293,0.0,4.0,95,0.00,,,0.04,1.000000,,2013-05-06 11:02:00,
2013-05-06 05:12:00,31.0,30.0,-100.00,WNW,293,0.0,4.0,95,0.00,,,0.04,1.000000,,2013-05-06 11:12:00,
2013-05-06 05:22:00,31.0,30.0,-100.00,WNW,293,0.0,4.0,95,0.00,,,0.04,1.000000,,2013-05-06 11:22:00,
2013-05-06 05:42:00,33.0,31.0,-100.00,WSW,242,1.0,5.0,91,0.00,,,-99.99,1.000000,,2013-05-06 11:42:00,
2013-05-06 05:52:00,33.0,31.0,-100.00,WSW,242,1.0,5.0,91,0.00,,,-99.99,1.000000,,2013-05-06 11:52:00,
2013-05-06 06:01:00,33.0,31.0,-100.00,WSW,242,1.0,5.0,91,0.00,,,-99.99,1.000000,,2013-05-06 12:01:00,
2013-05-06 06:12:00,33.0,31.0,-100.00,WSW,242,1.0,5.0,91,0.00,,,-99.99,1.000000,,2013-05-06 12:12:00,
2013-05-06 06:21:00,33.0,31.0,-100.00,WSW,242,1.0,5.0,91,0.00,,,-99.99,1.000000,,2013-05-06 12:21:00,
2013-05-06 06:42:00,32.0,30.0,-100.00,West,276,1.0,4.0,93,0.00,,,0.04,1.000000,,2013-05-06 12:42:00,
2013-05-06 06:52:00,32.0,30.0,-100.00,West,276,1.0,4.0,93,0.00,,,0.04,1.000000,,2013-05-06 12:52:00,
2013-05-06 07:01:00,32.0,30.0,-100.00,West,276,1.0,4.0,93,0.00,,,0.04,1.000000,,2013-05-06 13:01:00,
2013-05-06 07:11:00,32.0,30.0,-100.00,West,276,1.0,4.0,93,0.00,,,0.04,1.000000,,2013-05-06 13:11:00,
2013-05-06 07:21:00,32.0,30.0,-100.00,West,276,1.0,4.0,93,0.00,,,0.04,1.000000,,2013-05-06 13:21:00,
2013-05-06 07:42:00,36.0,32.0,-100.00,East,101,0.0,3.0,86,0.00,,,0.04,74.000000,,2013-05-06 13:42:00,
2013-05-06 07:52:00,36.0,32.0,-100.00,East,101,0.0,3.0,86,0.00,,,0.04,74.000000,,2013-05-06 13:52:00,
2013-05-06 08:01:00,36.0,32.0,-100.00,East,101,0.0,3.0,86,0.00,,,0.04,74.000000,,2013-05-06 14:01:00,
2013-05-06 08:11:00,36.0,32.0,-100.00,East,101,0.0,3.0,86,0.00,,,0.04,74.000000,,2013-05-06 14:11:00,
2013-05-06 08:21:00,36.0,32.0,-100.00,East,101,0.0,3.0,86,0.00,,,0.04,74.000000,,2013-05-06 14:21:00,
2013-05-06 08:42:00,40.0,35.0,-100.00,ESE,110,0.0,2.0,81,0.00,,,0.04,168.000000,,2013-05-06 14:42:00,
2013-05-06 08:52:00,40.0,35.0,-100.00,ESE,110,0.0,2.0,81,0.00,,,0.04,168.000000,,2013-05-06 14:52:00,
2013-05-06 09:01:00,40.0,35.0,-100.00,ESE,110,0.0,2.0,81,0.00,,,0.04,168.000000,,2013-05-06 15:01:00,
2013-05-06 09:11:00,40.0,35.0,-100.00,ESE,110,0.0,2.0,81,0.00,,,0.04,168.000000,,2013-05-06 15:11:00,
2013-05-06 09:21:00,40.0,35.0,-100.00,ESE,110,0.0,2.0,81,0.00,,,0.04,168.000000,,2013-05-06 15:21:00,
2013-05-06 09:43:00,48.0,34.0,-100.00,ESE,123,3.0,6.0,59,0.00,,,0.04,425.000000,,2013-05-06 15:43:00,
2013-05-06 09:53:00,48.0,34.0,-100.00,ESE,123,3.0,6.0,59,0.00,,,0.04,425.000000,,2013-05-06 15:53:00,
2013-05-06 10:03:00,48.0,34.0,-100.00,ESE,123,3.0,6.0,59,0.00,,,0.04,425.000000,,2013-05-06 16:03:00,
2013-05-06 10:13:00,48.0,34.0,-100.00,ESE,123,3.0,6.0,59,0.00,,,0.04,425.000000,,2013-05-06 16:13:00,
2013-05-06 10:23:00,48.0,34.0,-100.00,ESE,123,3.0,6.0,59,0.00,,,0.04,425.000000,,2013-05-06 16:23:00,
2013-05-06 10:42:00,52.0,32.0,-100.00,ENE,64,6.0,11.0,47,0.00,,,0.04,632.000000,,2013-05-06 16:42:00,
2013-05-06 10:52:00,52.0,32.0,-100.00,ENE,64,6.0,11.0,47,0.00,,,0.04,632.000000,,2013-05-06 16:52:00,
2013-05-06 11:03:00,52.0,32.0,-100.00,ENE,64,6.0,11.0,47,0.00,,,0.04,632.000000,,2013-05-06 17:03:00,
2013-05-06 11:12:00,52.0,32.0,-100.00,ENE,64,6.0,11.0,47,0.00,,,0.04,632.000000,,2013-05-06 17:12:00,
2013-05-06 11:23:00,52.0,32.0,-100.00,ENE,64,6.0,11.0,47,0.00,,,0.04,632.000000,,2013-05-06 17:23:00,
2013-05-06 11:42:00,52.0,31.0,-100.00,ENE,65,10.0,15.0,44,0.00,,,0.04,736.000000,,2013-05-06 17:42:00,
2013-05-06 11:52:00,52.0,31.0,-100.00,ENE,65,10.0,15.0,44,0.00,,,0.04,736.000000,,2013-05-06 17:52:00,
2013-05-06 12:01:00,52.0,31.0,-100.00,ENE,65,10.0,15.0,44,0.00,,,0.04,736.000000,,2013-05-06 18:01:00,
2013-05-06 12:12:00,52.0,31.0,-100.00,ENE,65,10.0,15.0,44,0.00,,,0.04,736.000000,,2013-05-06 18:12:00,
2013-05-06 12:21:00,52.0,31.0,-100.00,ENE,65,10.0,15.0,44,0.00,,,0.04,736.000000,,2013-05-06 18:21:00,
2013-05-06 12:43:00,53.0,31.0,-100.00,East,93,5.0,13.0,42,0.00,,,0.04,447.000000,,2013-05-06 18:43:00,
2013-05-06 12:52:00,53.0,31.0,-100.00,East,93,5.0,13.0,42,0.00,,,0.04,447.000000,,2013-05-06 18:52:00,
2013-05-06 13:01:00,53.0,31.0,-100.00,East,93,5.0,13.0,42,0.00,,,0.04,447.000000,,2013-05-06 19:01:00,
2013-05-06 13:11:00,53.0,31.0,-100.00,East,93,5.0,13.0,42,0.00,,,0.04,447.000000,,2013-05-06 19:11:00,
2013-05-06 13:22:00,53.0,31.0,-100.00,East,93,5.0,13.0,42,0.00,,,0.04,447.000000,,2013-05-06 19:22:00,
2013-05-06 13:42:00,54.0,30.0,-100.00,ENE,78,5.0,11.0,40,0.00,,,0.04,507.000000,,2013-05-06 19:42:00,
2013-05-06 13:52:00,54.0,30.0,-100.00,ENE,78,5.0,11.0,40,0.00,,,0.04,507.000000,,2013-05-06 19:52:00,
2013-05-06 14:02:00,54.0,30.0,-100.00,ENE,78,5.0,11.0,40,0.00,,,0.04,507.000000,,2013-05-06 20:02:00,
2013-05-06 14:11:00,54.0,30.0,-100.00,ENE,78,5.0,11.0,40,0.00,,,0.04,507.000000,,2013-05-06 20:11:00,
2013-05-06 14:21:00,54.0,30.0,-100.00,ENE,78,5.0,11.0,40,0.00,,,0.04,507.000000,,2013-05-06 20:21:00,
2013-05-06 14:42:00,55.0,31.0,-100.00,ENE,70,7.0,15.0,40,0.00,,,0.04,498.000000,,2013-05-06 20:42:00,
2013-05-06 14:52:00,55.0,31.0,-100.00,ENE,70,7.0,15.0,40,0.00,,,0.04,498.000000,,2013-05-06 20:52:00,
2013-05-06 15:01:00,55.0,31.0,-100.00,ENE,70,7.0,15.0,40,0.00,,,0.04,498.000000,,2013-05-06 21:01:00,
2013-05-06 15:11:00,55.0,31.0,-100.00,ENE,70,7.0,15.0,40,0.00,,,0.04,498.000000,,2013-05-06 21:11:00,
2013-05-06 15:21:00,55.0,31.0,-100.00,ENE,70,7.0,15.0,40,0.00,,,0.04,498.000000,,2013-05-06 21:21:00,
2013-05-06 15:43:00,56.0,30.0,-100.00,East,84,7.0,13.0,37,0.00,,,0.04,484.000000,,2013-05-06 21:43:00,
2013-05-06 15:53:00,56.0,30.0,-100.00,East,84,7.0,13.0,37,0.00,,,0.04,484.000000,,2013-05-06 21:53:00,
2013-05-06 16:03:00,56.0,30.0,-100.00,East,84,7.0,13.0,37,0.00,,,0.04,484.000000,,2013-05-06 22:03:00,
2013-05-06 16:12:00,56.0,30.0,-100.00,East,84,7.0,13.0,37,0.00,,,0.04,484.000000,,2013-05-06 22:12:00,
2013-05-06 16:22:00,56.0,30.0,-100.00,East,84,7.0,13.0,37,0.00,,,0.04,484.000000,,2013-05-06 22:22:00,
2013-05-06 16:45:00,56.0,29.0,-100.00,East,81,7.0,15.0,35,0.00,,,0.04,587.000000,,2013-05-06 22:45:00,
2013-05-06 16:52:00,56.0,29.0,-100.00,East,81,7.0,15.0,35,0.00,,,0.04,587.000000,,2013-05-06 22:52:00,
2013-05-06 17:03:00,56.0,29.0,-100.00,East,81,7.0,15.0,35,0.00,,,0.04,587.000000,,2013-05-06 23:03:00,
2013-05-06 17:12:00,56.0,29.0,-100.00,East,81,7.0,15.0,35,0.00,,,0.04,587.000000,,2013-05-06 23:12:00,
2013-05-06 17:22:00,56.0,29.0,-100.00,East,81,7.0,15.0,35,0.00,,,0.04,587.000000,,2013-05-06 23:22:00,
2013-05-06 17:42:00,54.0,29.0,-100.00,ESE,115,4.0,12.0,38,0.00,,,0.04,338.000000,,2013-05-06 23:42:00,
2013-05-06 17:52:00,54.0,29.0,-100.00,ESE,115,4.0,12.0,38,0.00,,,0.04,338.000000,,2013-05-06 23:52:00,
2013-05-06 18:01:00,54.0,29.0,-100.00,ESE,115,4.0,12.0,38,0.00,,,0.04,338.000000,,2013-05-07 00:01:00,
2013-05-06 18:11:00,54.0,29.0,-100.00,ESE,115,4.0,12.0,38,0.00,,,0.04,338.000000,,2013-05-07 00:11:00,
2013-05-06 18:21:00,54.0,29.0,-100.00,ESE,115,4.0,12.0,38,0.00,,,0.04,338.000000,,2013-05-07 00:21:00,
2013-05-06 18:42:00,53.0,27.0,-100.00,SE,125,2.0,9.0,37,0.00,,,0.04,310.000000,,2013-05-07 00:42:00,
2013-05-06 18:52:00,53.0,27.0,-100.00,SE,125,2.0,9.0,37,0.00,,,0.04,310.000000,,2013-05-07 00:52:00,
2013-05-06 19:01:00,53.0,27.0,-100.00,SE,125,2.0,9.0,37,0.00,,,0.04,310.000000,,2013-05-07 01:01:00,
2013-05-06 19:11:00,53.0,27.0,-100.00,SE,125,2.0,9.0,37,0.00,,,0.04,310.000000,,2013-05-07 01:11:00,
2013-05-06 19:21:00,53.0,27.0,-100.00,SE,125,2.0,9.0,37,0.00,,,0.04,310.000000,,2013-05-07 01:21:00,
2013-05-06 19:42:00,51.0,28.0,-100.00,East,100,2.0,6.0,41,0.00,,,0.03,134.000000,,2013-05-07 01:42:00,
2013-05-06 19:53:00,51.0,28.0,-100.00,East,100,2.0,6.0,41,0.00,,,0.03,134.000000,,2013-05-07 01:53:00,
2013-05-06 20:02:00,51.0,28.0,-100.00,East,100,2.0,6.0,41,0.00,,,0.03,134.000000,,2013-05-07 02:02:00,
2013-05-06 20:11:00,51.0,28.0,-100.00,East,100,2.0,6.0,41,0.00,,,0.03,134.000000,,2013-05-07 02:11:00,
2013-05-06 20:21:00,51.0,28.0,-100.00,East,100,2.0,6.0,41,0.00,,,0.03,134.000000,,2013-05-07 02:21:00,
2013-05-06 20:42:00,46.0,33.0,-100.00,NW,305,0.0,2.0,60,0.00,,,0.03,25.000000,,2013-05-07 02:42:00,
2013-05-06 20:52:00,46.0,33.0,-100.00,NW,305,0.0,2.0,60,0.00,,,0.03,25.000000,,2013-05-07 02:52:00,
2013-05-06 21:01:00,46.0,33.0,-100.00,NW,305,0.0,2.0,60,0.00,,,0.03,25.000000,,2013-05-07 03:01:00,
2013-05-06 21:11:00,46.0,33.0,-100.00,NW,305,0.0,2.0,60,0.00,,,0.03,25.000000,,2013-05-07 03:11:00,
2013-05-06 21:21:00,46.0,33.0,-100.00,NW,305,0.0,2.0,60,0.00,,,0.03,25.000000,,2013-05-07 03:21:00,
2013-05-06 21:43:00,44.0,32.0,-100.00,NW,305,3.0,4.0,63,0.00,,,0.03,1.000000,,2013-05-07 03:43:00,
2013-05-06 21:53:00,44.0,32.0,-100.00,NW,305,3.0,4.0,63,0.00,,,0.03,1.000000,,2013-05-07 03:53:00,
2013-05-06 22:03:00,44.0,32.0,-100.00,NW,305,3.0,4.0,63,0.00,,,0.03,1.000000,,2013-05-07 04:03:00,
2013-05-06 22:12:00,44.0,32.0,-100.00,NW,305,3.0,4.0,63,0.00,,,0.03,1.000000,,2013-05-07 04:12:00,
2013-05-06 22:23:00,44.0,32.0,-100.00,NW,305,3.0,4.0,63,0.00,,,0.03,1.000000,,2013-05-07 04:23:00,
2013-05-06 22:42:00,42.0,31.0,-100.00,WNW,301,1.0,4.0,64,0.00,,,0.02,1.000000,,2013-05-07 04:42:00,
2013-05-06 22:53:00,42.0,31.0,-100.00,WNW,301,1.0,4.0,64,0.00,,,0.02,1.000000,,2013-05-07 04:53:00,
2013-05-06 23:02:00,42.0,31.0,-100.00,WNW,301,1.0,4.0,64,0.00,,,0.02,1.000000,,2013-05-07 05:02:00,
2013-05-06 23:12:00,42.0,31.0,-100.00,WNW,301,1.0,4.0,64,0.00,,,0.02,1.000000,,2013-05-07 05:12:00,
2013-05-06 23:22:00,42.0,31.0,-100.00,WNW,301,1.0,4.0,64,0.00,,,0.02,1.000000,,2013-05-07 05:22:00,
2013-05-06 23:42:00,41.0,29.0,-100.00,NW,321,2.0,10.0,63,0.00,,,0.00,1.000000,,2013-05-07 05:42:00,
2013-05-06 23:52:00,41.0,29.0,-100.00,NW,321,2.0,10.0,63,0.00,,,0.00,1.000000,,2013-05-07 05:52:00,